createdAt,value
2018-11-22T00:01:08.741Z,6.07
2018-11-22T00:03:37.974Z,5.98
2018-11-22T00:06:06.882Z,6.02
2018-11-22T00:08:36.036Z,6.07
2018-11-22T00:11:04.792Z,6.09
2018-11-22T00:13:33.674Z,6.11
2018-11-22T00:16:08.457Z,6.15
2018-11-22T00:18:37.361Z,6.11
2018-11-22T00:21:06.732Z,6.09
2018-11-22T00:23:36.868Z,6.15
2018-11-22T00:26:05.791Z,6.14
2018-11-22T00:28:34.705Z,6.09
2018-11-22T00:31:06.583Z,6.11
2018-11-22T00:33:35.489Z,6.18
2018-11-22T00:36:07.017Z,6.11
2018-11-22T00:38:36.140Z,6.10
2018-11-22T00:41:12.874Z,6.10
2018-11-22T00:43:41.806Z,6.02
2018-11-22T00:46:10.751Z,6.05
2018-11-22T00:48:39.345Z,6.06
2018-11-22T00:51:07.986Z,6.14
2018-11-22T00:53:38.670Z,6.18
2018-11-22T00:56:08.075Z,6.09
2018-11-22T00:58:37.321Z,6.06
2018-11-22T01:01:07.862Z,6.05
2018-11-22T01:03:36.716Z,6.09
2018-11-22T01:06:08.441Z,6.11
2018-11-22T01:08:37.329Z,6.08
2018-11-22T01:11:06.065Z,6.08
2018-11-22T01:13:41.092Z,5.96
2018-11-22T01:16:10.247Z,6.00
2018-11-22T01:18:42.629Z,6.06
2018-11-22T01:21:11.715Z,6.03
2018-11-22T01:23:40.328Z,5.98
2018-11-22T01:26:09.253Z,6.00
2018-11-22T01:28:38.367Z,6.05
2018-11-22T01:31:07.589Z,6.00
2018-11-22T01:33:36.510Z,6.07
2018-11-22T01:36:11.649Z,6.04
2018-11-22T01:38:40.571Z,6.04
2018-11-22T01:41:09.468Z,5.96
2018-11-22T01:43:45.043Z,5.95
2018-11-22T01:46:14.247Z,5.98
2018-11-22T01:48:43.272Z,5.93
2018-11-22T01:51:21.677Z,5.93
2018-11-22T01:53:53.334Z,5.82
2018-11-22T01:56:24.885Z,5.93
2018-11-22T01:58:53.686Z,5.93
2018-11-22T02:01:22.547Z,5.86
2018-11-22T02:03:51.452Z,5.78
2018-11-22T02:06:20.522Z,5.77
2018-11-22T02:08:50.124Z,5.90
2018-11-22T02:11:20.520Z,5.93
2018-11-22T02:13:49.487Z,5.98
2018-11-22T02:16:24.134Z,5.91
2018-11-22T02:18:53.022Z,5.79
2018-11-22T02:21:26.402Z,5.91
2018-11-22T02:23:55.312Z,5.85
2018-11-22T02:26:23.979Z,5.90
2018-11-22T02:28:53.393Z,5.77
2018-11-22T02:31:22.032Z,5.75
2018-11-22T02:33:53.751Z,5.81
2018-11-22T02:36:28.664Z,5.83
2018-11-22T02:38:57.561Z,5.84
2018-11-22T02:41:29.766Z,5.78
2018-11-22T02:43:58.843Z,5.75
2018-11-22T02:46:27.477Z,5.75
2018-11-22T02:48:56.463Z,5.67
2018-11-22T02:51:43.224Z,5.73
2018-11-22T02:54:14.156Z,5.76
2018-11-22T02:56:43.215Z,5.75
2018-11-22T02:59:11.849Z,5.74
2018-11-22T03:01:40.862Z,5.78
2018-11-22T03:04:09.453Z,5.76
2018-11-22T03:06:40.868Z,5.71
2018-11-22T03:09:11.199Z,5.69
2018-11-22T03:11:40.325Z,5.77
2018-11-22T03:14:09.141Z,5.74
2018-11-22T03:16:37.826Z,5.77
2018-11-22T03:19:06.546Z,5.81
2018-11-22T03:21:39.673Z,5.80
2018-11-22T03:24:06.659Z,5.77
2018-11-22T03:26:35.673Z,5.79
2018-11-22T03:29:05.388Z,5.81
2018-11-22T03:31:41.740Z,5.94
2018-11-22T03:34:10.647Z,5.95
2018-11-22T03:36:41.279Z,5.91
2018-11-22T03:39:10.567Z,5.90
2018-11-22T03:41:39.149Z,5.91
2018-11-22T03:44:08.323Z,5.92
2018-11-22T03:46:37.620Z,5.90
2018-11-22T03:49:06.377Z,5.84
2018-11-22T03:51:45.800Z,5.86
2018-11-22T03:54:06.455Z,5.90
2018-11-22T03:56:35.063Z,5.86
2018-11-22T03:59:07.055Z,5.76
2018-11-22T04:01:35.686Z,5.80
2018-11-22T04:04:13.106Z,5.81
2018-11-22T04:06:42.160Z,5.80
2018-11-22T04:09:12.125Z,5.90
2018-11-22T04:11:40.766Z,5.83
2018-11-22T04:14:10.133Z,5.82
2018-11-22T04:16:38.726Z,5.85
2018-11-22T12:17:55.671Z,12.45
2018-11-22T12:20:24.614Z,12.39
2018-11-22T12:22:57.727Z,12.24
2018-11-22T12:25:27.862Z,12.19
2018-11-22T12:28:01.494Z,11.98
2018-11-22T12:30:32.733Z,11.85
2018-11-22T12:35:07.996Z,11.74
2018-11-22T12:37:43.357Z,11.16
2018-11-22T12:40:11.935Z,11.25
2018-11-22T12:42:41.282Z,11.12
2018-11-22T12:48:04.984Z,11.33
2018-11-22T12:50:33.943Z,11.30
2018-11-22T12:53:02.933Z,11.22
2018-11-22T12:55:32.172Z,11.12
2018-11-22T12:58:01.124Z,11.02
2018-11-22T13:00:30.046Z,10.86
2018-11-22T13:02:59.450Z,10.61
2018-11-22T13:05:31.881Z,10.48
2018-11-22T13:08:00.978Z,10.34
2018-11-22T13:10:30.284Z,10.36
2018-11-22T13:12:59.250Z,10.13
2018-11-22T13:15:29.751Z,10.04
2018-11-22T13:18:09.102Z,9.92
2018-11-22T13:20:37.993Z,9.87
2018-11-22T13:23:07.112Z,9.87
2018-11-22T13:25:36.341Z,9.80
2018-11-22T13:28:06.400Z,9.78
2018-11-22T13:30:35.317Z,9.72
2018-11-22T13:33:08.496Z,9.59
2018-11-22T13:35:37.363Z,9.54
2018-11-22T13:38:06.801Z,9.53
2018-11-22T13:40:35.682Z,9.54
2018-11-22T13:43:09.272Z,9.65
2018-11-22T13:45:38.528Z,9.62
2018-11-22T13:48:07.360Z,9.56
2018-11-22T13:50:41.964Z,9.45
2018-11-22T13:53:06.955Z,9.36
2018-11-22T13:55:36.096Z,9.29
2018-11-22T13:58:05.997Z,9.17
2018-11-22T14:00:40.341Z,9.19
2018-11-22T14:03:09.272Z,9.18
2018-11-22T14:05:38.948Z,9.23
2018-11-22T14:08:07.809Z,9.26
2018-11-22T14:10:36.675Z,9.25
2018-11-22T14:13:05.713Z,9.28
2018-11-22T14:15:35.445Z,9.35
2018-11-22T14:18:06.533Z,9.37
2018-11-22T14:20:36.265Z,9.40
2018-11-22T14:23:05.373Z,9.29
2018-11-22T14:25:33.969Z,9.25
2018-11-22T14:28:09.396Z,9.23
2018-11-22T14:30:38.496Z,9.13
2018-11-22T14:33:07.554Z,9.10
2018-11-22T14:35:41.034Z,9.05
2018-11-22T14:38:09.958Z,8.99
2018-11-22T14:40:38.889Z,8.99
2018-11-22T14:43:08.073Z,8.91
2018-11-22T14:45:36.997Z,8.84
2018-11-22T14:48:11.953Z,8.75
2018-11-22T14:50:50.737Z,8.76
2018-11-22T14:53:21.177Z,8.69
2018-11-22T14:55:53.015Z,8.64
2018-11-22T14:58:21.839Z,8.63
2018-11-22T15:00:50.656Z,8.52
2018-11-22T15:03:19.807Z,8.49
2018-11-22T15:05:48.704Z,8.45
2018-11-22T15:08:17.708Z,8.45
2018-11-22T15:10:46.948Z,8.35
2018-11-22T15:13:15.934Z,8.32
2018-11-22T15:15:44.923Z,8.24
2018-11-22T15:18:13.879Z,8.23
2018-11-22T15:22:14.678Z,8.16
2018-11-22T15:24:43.766Z,8.08
2018-11-22T15:27:12.643Z,8.03
2018-11-22T15:29:41.534Z,7.96
2018-11-22T15:34:45.390Z,7.89
2018-11-22T15:37:14.479Z,7.82
2018-11-22T15:39:43.676Z,7.79
2018-11-22T15:42:12.552Z,7.72
2018-11-22T15:44:41.430Z,7.71
2018-11-22T15:47:10.553Z,7.65
2018-11-22T15:49:44.219Z,7.61
2018-11-22T15:52:13.079Z,7.56
2018-11-22T15:54:42.408Z,7.43
2018-11-22T15:57:11.207Z,7.42
2018-11-22T15:59:40.813Z,7.40
2018-11-22T16:02:09.993Z,7.36
2018-11-22T16:04:39.172Z,7.32
2018-11-22T16:07:08.044Z,7.26
2018-11-22T16:09:36.897Z,7.24
2018-11-22T16:12:06.772Z,7.21
2018-11-22T16:14:37.130Z,7.21
2018-11-22T16:17:06.376Z,7.15
2018-11-22T16:19:35.250Z,7.11
2018-11-22T16:22:11.036Z,7.09
2018-11-22T16:24:41.097Z,7.11
2018-11-22T16:27:10.036Z,7.08
2018-11-22T16:29:38.954Z,7.03
2018-11-22T16:32:11.898Z,7.03
2018-11-22T16:34:41.555Z,7.00
2018-11-22T16:37:16.121Z,7.01
2018-11-22T16:39:45.242Z,6.97
2018-11-22T16:42:14.179Z,6.98
2018-11-22T16:44:43.736Z,6.97
2018-11-22T16:47:13.029Z,6.88
2018-11-22T16:49:41.940Z,6.93
2018-11-22T16:52:11.134Z,6.90
2018-11-22T16:54:40.354Z,6.90
2018-11-22T16:57:12.131Z,6.92
2018-11-22T16:59:43.096Z,6.86
2018-11-22T17:02:14.765Z,6.86
2018-11-22T17:04:44.776Z,6.88
2018-11-22T17:07:19.743Z,6.85
2018-11-22T17:09:48.857Z,6.85
2018-11-22T17:12:19.606Z,6.85
2018-11-22T17:14:49.279Z,6.81
2018-11-22T17:17:20.344Z,6.79
2018-11-22T17:19:49.473Z,6.75
2018-11-22T17:22:18.683Z,6.73
2018-11-22T17:24:47.871Z,6.72
2018-11-22T17:27:16.744Z,6.74
2018-11-22T17:29:47.047Z,6.72
2018-11-22T17:32:19.776Z,6.70
2018-11-22T17:34:56.478Z,6.69
2018-11-22T17:37:25.730Z,6.69
2018-11-22T17:39:58.490Z,6.63
2018-11-22T17:42:27.413Z,6.61
2018-11-22T17:45:02.559Z,6.59
2018-11-22T17:47:32.875Z,6.52
2018-11-22T17:50:06.133Z,6.51
2018-11-22T17:52:37.292Z,6.50
2018-11-22T17:55:12.700Z,6.50
2018-11-22T17:57:43.464Z,6.45
2018-11-22T18:00:19.831Z,6.41
2018-11-22T18:02:50.077Z,6.38
2018-11-22T18:05:19.848Z,6.38
2018-11-22T18:07:48.711Z,6.35
2018-11-22T18:10:19.075Z,6.34
2018-11-22T18:12:48.901Z,6.35
2018-11-22T18:15:18.969Z,6.33
2018-11-22T18:17:48.018Z,6.32
2018-11-22T18:20:19.469Z,6.28
2018-11-22T18:22:49.077Z,6.30
2018-11-22T18:25:19.559Z,6.29
2018-11-22T18:30:33.858Z,6.29
2018-11-22T18:33:05.038Z,6.29
2018-11-22T18:35:33.960Z,6.25
2018-11-22T18:38:05.436Z,6.26
2018-11-22T18:40:36.912Z,6.19
2018-11-22T18:43:06.323Z,6.16
2018-11-22T18:45:36.833Z,6.10
2018-11-22T18:48:08.130Z,6.11
2018-11-22T18:50:41.098Z,6.09
2018-11-22T18:53:11.290Z,6.10
2018-11-22T18:55:39.246Z,6.05
2018-11-22T19:00:43.795Z,5.99
2018-11-22T19:03:14.232Z,5.97
2018-11-22T19:05:43.141Z,5.95
2018-11-22T19:08:12.033Z,5.97
2018-11-22T19:10:42.125Z,5.96
2018-11-22T19:13:11.959Z,5.98
2018-11-22T19:15:43.319Z,5.98
2018-11-22T19:18:13.433Z,5.97
2018-11-22T19:20:45.173Z,5.92
2018-11-22T19:23:14.528Z,5.87
2018-11-22T19:25:43.460Z,5.82
2018-11-22T19:28:12.472Z,5.88
2018-11-22T19:30:43.313Z,5.83
2018-11-22T19:33:13.813Z,5.80
2018-11-22T19:35:44.215Z,5.81
2018-11-22T19:38:13.577Z,5.75
2018-11-22T19:40:43.079Z,5.75
2018-11-22T19:43:12.387Z,5.73
2018-11-22T19:45:43.289Z,5.68
2018-11-22T19:48:12.321Z,5.67
2018-11-22T19:50:41.504Z,5.64
2018-11-22T19:53:12.328Z,5.65
2018-11-22T19:55:41.574Z,5.61
2018-11-22T19:58:11.970Z,5.58
2018-11-22T20:03:20.956Z,5.51
2018-11-22T20:05:49.941Z,5.46
2018-11-22T20:08:19.738Z,5.45
2018-11-22T20:10:56.012Z,5.42
2018-11-22T20:13:31.675Z,5.38
2018-11-22T20:16:00.920Z,5.37
2018-11-22T20:18:33.974Z,5.40
2018-11-22T20:21:03.102Z,5.36
2018-11-22T20:23:33.953Z,5.33
2018-11-22T20:26:04.110Z,5.27
2018-11-22T20:28:32.980Z,5.24
2018-11-22T20:31:02.994Z,5.23
2018-11-22T20:33:32.196Z,5.18
2018-11-22T20:36:01.201Z,5.17
2018-11-22T20:38:30.039Z,5.16
2018-11-22T20:40:59.278Z,5.14
2018-11-22T20:43:38.944Z,5.10
2018-11-22T20:46:08.250Z,5.09
2018-11-22T20:48:37.105Z,5.08
2018-11-22T20:51:07.173Z,5.10
2018-11-22T20:53:36.433Z,5.08
2018-11-22T20:56:06.714Z,4.99
2018-11-22T20:58:35.551Z,4.99
2018-11-22T21:03:44.499Z,4.92
2018-11-22T21:06:13.436Z,4.85
2018-11-22T21:08:48.424Z,4.79
2018-11-22T21:11:11.338Z,4.79
2018-11-22T21:13:40.613Z,4.81
2018-11-22T21:16:09.471Z,4.80
2018-11-22T21:18:38.442Z,4.83
2018-11-22T21:21:07.715Z,4.85
2018-11-22T21:23:36.553Z,4.86
2018-11-22T21:28:40.374Z,4.82
2018-11-22T21:31:12.488Z,4.81
2018-11-22T21:33:41.428Z,4.78
2018-11-22T21:36:10.579Z,4.77
2018-11-22T21:38:39.423Z,4.75
2018-11-22T21:41:08.248Z,4.73
2018-11-22T21:43:37.397Z,4.70
2018-11-22T21:46:36.686Z,4.65
2018-11-22T21:49:05.840Z,4.63
2018-11-22T21:51:39.389Z,4.62
2018-11-22T21:54:14.632Z,4.60
2018-11-22T21:56:43.790Z,4.59
2018-11-22T21:59:12.579Z,4.60
2018-11-22T22:01:41.412Z,4.60
2018-11-22T22:04:10.565Z,4.59
2018-11-22T22:06:45.510Z,4.60
2018-11-22T22:09:14.361Z,4.54
2018-11-22T22:11:43.592Z,4.51
2018-11-22T22:14:12.506Z,4.52
2018-11-22T22:16:41.535Z,4.53
2018-11-22T22:19:15.988Z,4.55
2018-11-22T22:21:45.571Z,4.52
2018-11-22T22:24:14.460Z,4.44
2018-11-22T22:26:43.557Z,4.46
2018-11-22T22:29:12.617Z,4.47
2018-11-22T22:31:52.434Z,4.43
2018-11-22T22:34:21.860Z,4.44
2018-11-22T22:36:50.691Z,4.42
2018-11-22T22:39:19.570Z,4.39
2018-11-22T22:41:48.721Z,4.41
2018-11-22T22:44:22.403Z,4.42
2018-11-22T22:46:52.626Z,4.39
2018-11-22T22:49:25.145Z,4.37
2018-11-22T22:51:53.996Z,4.38
2018-11-22T22:54:23.189Z,4.36
2018-11-22T22:56:52.303Z,4.36
2018-11-22T22:59:21.246Z,4.41
2018-11-22T23:01:50.375Z,4.35
2018-11-22T23:04:24.826Z,4.34
2018-11-22T23:06:53.833Z,4.35
2018-11-22T23:09:22.958Z,4.33
2018-11-22T23:11:51.803Z,4.36
2018-11-22T23:14:20.651Z,4.34
2018-11-22T23:16:49.794Z,4.30
2018-11-22T23:19:18.782Z,4.27
2018-11-22T23:21:48.382Z,4.32
2018-11-22T23:24:17.671Z,4.27
2018-11-22T23:26:58.522Z,4.28
2018-11-22T23:29:27.593Z,4.23
2018-11-22T23:31:56.802Z,4.25
2018-11-22T23:34:25.722Z,4.17
2018-11-22T23:36:54.849Z,4.22
2018-11-22T23:39:23.936Z,4.20
2018-11-22T23:41:53.342Z,4.17
2018-11-22T23:44:22.258Z,4.15
2018-11-22T23:46:53.724Z,4.12
2018-11-22T23:49:22.545Z,4.10
2018-11-22T23:51:57.060Z,4.12
2018-11-22T23:54:26.181Z,4.09
2018-11-22T23:56:59.692Z,4.07
2018-11-22T23:59:28.529Z,4.08
